sensor_id;sensor_type;location;lat;lon;timestamp;pressure;altitude;pressure_sealevel;temperature;humidity
42511;BME280;28141;51.120;17.114;2023-08-30T00:03:11;100598.46;;;29.59;43.45
42511;BME280;28141;51.120;17.114;2023-08-30T00:06:51;100603.47;;;29.57;43.75
42511;BME280;28141;51.120;17.114;2023-08-30T00:10:07;100609.89;;;29.57;44.29
42511;BME280;28141;51.120;17.114;2023-08-30T00:13:23;100619.38;;;29.56;43.62
42511;BME280;28141;51.120;17.114;2023-08-30T00:16:37;100617.70;;;29.55;44.29
42511;BME280;28141;51.120;17.114;2023-08-30T00:20:18;100618.57;;;29.61;43.74
42511;BME280;28141;51.120;17.114;2023-08-30T00:23:32;100617.73;;;29.60;44.10
42511;BME280;28141;51.120;17.114;2023-08-30T00:26:46;100617.70;;;29.55;43.66
42511;BME280;28141;51.120;17.114;2023-08-30T00:30:00;100622.73;;;29.58;42.95
42511;BME280;28141;51.120;17.114;2023-08-30T00:33:40;100615.75;;;29.56;43.77
42511;BME280;28141;51.120;17.114;2023-08-30T00:36:54;100617.13;;;29.53;44.14
42511;BME280;28141;51.120;17.114;2023-08-30T00:40:08;100609.90;;;29.52;43.95
42511;BME280;28141;51.120;17.114;2023-08-30T00:43:23;100611.01;;;29.51;43.47
42511;BME280;28141;51.120;17.114;2023-08-30T00:47:03;100604.33;;;29.52;43.87
42511;BME280;28141;51.120;17.114;2023-08-30T00:50:17;100598.43;;;29.54;43.69
42511;BME280;28141;51.120;17.114;2023-08-30T00:53:32;100581.71;;;29.59;43.75
42511;BME280;28141;51.120;17.114;2023-08-30T00:56:46;100580.88;;;29.58;43.13
42511;BME280;28141;51.120;17.114;2023-08-30T01:00:26;100597.05;;;29.56;43.76
42511;BME280;28141;51.120;17.114;2023-08-30T01:03:41;100597.59;;;29.53;44.47
42511;BME280;28141;51.120;17.114;2023-08-30T01:06:55;100597.05;;;29.51;43.96
42511;BME280;28141;51.120;17.114;2023-08-30T01:10:09;100598.16;;;29.50;43.86
42511;BME280;28141;51.120;17.114;2023-08-30T01:17:17;100599.82;;;29.41;43.87
42511;BME280;28141;51.120;17.114;2023-08-30T01:20:35;100600.94;;;29.45;43.49
42511;BME280;28141;51.120;17.114;2023-08-30T01:24:26;100622.42;;;29.45;43.99
42511;BME280;28141;51.120;17.114;2023-08-30T01:27:43;100612.93;;;29.46;44.35
42511;BME280;28141;51.120;17.114;2023-08-30T01:30:59;100610.98;;;29.46;44.56
42511;BME280;28141;51.120;17.114;2023-08-30T01:34:41;100626.91;;;29.56;43.83
42511;BME280;28141;51.120;17.114;2023-08-30T01:37:56;100625.80;;;29.52;43.68
42511;BME280;28141;51.120;17.114;2023-08-30T01:41:11;100628.03;;;29.50;44.45
42511;BME280;28141;51.120;17.114;2023-08-30T01:44:27;100631.66;;;29.50;44.24
42511;BME280;28141;51.120;17.114;2023-08-30T01:48:14;100631.66;;;29.50;43.90
42511;BME280;28141;51.120;17.114;2023-08-30T01:51:29;100620.74;;;29.44;43.48
42511;BME280;28141;51.120;17.114;2023-08-30T01:54:44;100615.75;;;29.51;43.42
42511;BME280;28141;51.120;17.114;2023-08-30T01:57:59;100616.56;;;29.46;43.78
42511;BME280;28141;51.120;17.114;2023-08-30T02:01:39;100612.93;;;29.46;43.89
42511;BME280;28141;51.120;17.114;2023-08-30T02:04:53;100624.37;;;29.44;44.36
42511;BME280;28141;51.120;17.114;2023-08-30T02:08:13;100620.47;;;29.40;43.99
42511;BME280;28141;51.120;17.114;2023-08-30T02:11:32;100600.09;;;29.39;44.03
42511;BME280;28141;51.120;17.114;2023-08-30T02:15:14;100620.20;;;29.42;43.98
42511;BME280;28141;51.120;17.114;2023-08-30T02:18:29;100623.80;;;29.42;44.10
42511;BME280;28141;51.120;17.114;2023-08-30T02:21:43;100616.84;;;29.39;43.73
42511;BME280;28141;51.120;17.114;2023-08-30T02:24:57;100617.13;;;29.48;43.68
42511;BME280;28141;51.120;17.114;2023-08-30T02:28:37;100605.94;;;29.43;43.91
42511;BME280;28141;51.120;17.114;2023-08-30T02:31:52;100599.82;;;29.41;43.75
42511;BME280;28141;51.120;17.114;2023-08-30T02:35:06;100591.14;;;29.43;43.85
42511;BME280;28141;51.120;17.114;2023-08-30T02:38:20;100594.78;;;29.43;43.76
42511;BME280;28141;51.120;17.114;2023-08-30T02:42:02;100599.26;;;29.39;43.95
42511;BME280;28141;51.120;17.114;2023-08-30T02:45:16;100593.67;;;29.39;44.35
42511;BME280;28141;51.120;17.114;2023-08-30T02:48:33;100598.14;;;29.40;44.08
42511;BME280;28141;51.120;17.114;2023-08-30T02:51:47;100590.88;;;29.39;43.73
42511;BME280;28141;51.120;17.114;2023-08-30T02:55:26;100590.61;;;29.40;43.95
42511;BME280;28141;51.120;17.114;2023-08-30T02:58:40;100588.36;;;29.37;43.93
42511;BME280;28141;51.120;17.114;2023-08-30T03:01:55;100586.98;;;29.40;44.00
42511;BME280;28141;51.120;17.114;2023-08-30T03:05:09;100580.29;;;29.41;44.13
42511;BME280;28141;51.120;17.114;2023-08-30T03:08:49;100568.82;;;29.43;43.85
42511;BME280;28141;51.120;17.114;2023-08-30T03:12:04;100577.20;;;29.37;43.84
42511;BME280;28141;51.120;17.114;2023-08-30T03:15:18;100570.23;;;29.40;43.61
42511;BME280;28141;51.120;17.114;2023-08-30T03:18:32;100575.25;;;29.38;43.41
42511;BME280;28141;51.120;17.114;2023-08-30T03:22:12;100568.23;;;29.35;43.63
42511;BME280;28141;51.120;17.114;2023-08-30T03:25:29;100562.93;;;29.29;43.87
42511;BME280;28141;51.120;17.114;2023-08-30T03:28:44;100564.04;;;29.28;43.53
42511;BME280;28141;51.120;17.114;2023-08-30T03:31:57;100580.73;;;29.18;43.62
42511;BME280;28141;51.120;17.114;2023-08-30T03:35:38;100591.62;;;29.19;43.72
42511;BME280;28141;51.120;17.114;2023-08-30T03:38:51;100578.80;;;29.18;44.24
42511;BME280;28141;51.120;17.114;2023-08-30T03:42:06;100594.69;;;29.18;43.81
42511;BME280;28141;51.120;17.114;2023-08-30T03:45:20;100587.16;;;29.18;43.71
42511;BME280;28141;51.120;17.114;2023-08-30T03:48:59;100585.18;;;29.14;43.62
42511;BME280;28141;51.120;17.114;2023-08-30T03:52:13;100588.54;;;29.16;43.47
42511;BME280;28141;51.120;17.114;2023-08-30T03:55:27;100591.59;;;29.14;43.90
42511;BME280;28141;51.120;17.114;2023-08-30T03:58:41;100591.87;;;29.13;44.09
42511;BME280;28141;51.120;17.114;2023-08-30T04:01:55;100595.19;;;29.10;43.78
42511;BME280;28141;51.120;17.114;2023-08-30T04:05:36;100599.70;;;29.21;43.49
42511;BME280;28141;51.120;17.114;2023-08-30T04:08:50;100594.69;;;29.18;43.08
42511;BME280;28141;51.120;17.114;2023-08-30T04:12:04;100580.50;;;29.29;42.69
42511;BME280;28141;51.120;17.114;2023-08-30T04:15:19;100583.83;;;29.31;43.01
42511;BME280;28141;51.120;17.114;2023-08-30T04:18:33;100587.77;;;29.30;42.75
42511;BME280;28141;51.120;17.114;2023-08-30T04:22:13;100597.51;;;29.33;42.87
42511;BME280;28141;51.120;17.114;2023-08-30T04:25:28;100594.45;;;29.29;42.28
42511;BME280;28141;51.120;17.114;2023-08-30T04:28:42;100593.62;;;29.34;42.92
42511;BME280;28141;51.120;17.114;2023-08-30T04:31:56;100597.78;;;29.31;42.36
42511;BME280;28141;51.120;17.114;2023-08-30T04:35:39;100605.34;;;29.31;42.77
42511;BME280;28141;51.120;17.114;2023-08-30T04:38:53;100593.57;;;29.24;42.61
42511;BME280;28141;51.120;17.114;2023-08-30T04:42:07;100602.22;;;29.22;42.54
42511;BME280;28141;51.120;17.114;2023-08-30T04:45:20;100599.16;;;29.24;42.82
42511;BME280;28141;51.120;17.114;2023-08-30T04:49:00;100605.84;;;29.18;42.86
42511;BME280;28141;51.120;17.114;2023-08-30T04:52:14;100596.91;;;29.16;43.00
42511;BME280;28141;51.120;17.114;2023-08-30T04:55:29;100603.03;;;29.13;43.04
42511;BME280;28141;51.120;17.114;2023-08-30T04:58:43;100595.22;;;29.15;42.79
42511;BME280;28141;51.120;17.114;2023-08-30T05:02:25;100594.61;;;29.02;42.93
42511;BME280;28141;51.120;17.114;2023-08-30T05:05:39;100603.29;;;29.06;42.53
42511;BME280;28141;51.120;17.114;2023-08-30T05:08:53;100599.35;;;28.97;42.67
42511;BME280;28141;51.120;17.114;2023-08-30T05:12:08;100590.14;;;29.01;42.58
42511;BME280;28141;51.120;17.114;2023-08-30T05:15:50;100592.70;;;29.08;43.02
42511;BME280;28141;51.120;17.114;2023-08-30T05:19:04;100585.62;;;28.85;43.19
42511;BME280;28141;51.120;17.114;2023-08-30T05:22:18;100590.10;;;28.91;43.85
42511;BME280;28141;51.120;17.114;2023-08-30T05:25:32;100591.78;;;28.92;43.43
42511;BME280;28141;51.120;17.114;2023-08-30T05:28:46;100588.15;;;28.92;43.33
42511;BME280;28141;51.120;17.114;2023-08-30T05:32:00;100581.77;;;28.96;43.29
42511;BME280;28141;51.120;17.114;2023-08-30T05:35:40;100576.99;;;28.87;43.51
42511;BME280;28141;51.120;17.114;2023-08-30T05:38:54;100581.46;;;28.93;42.85
42511;BME280;28141;51.120;17.114;2023-08-30T05:42:08;100586.20;;;28.92;43.34
42511;BME280;28141;51.120;17.114;2023-08-30T05:45:22;100592.04;;;28.86;43.68
42511;BME280;28141;51.120;17.114;2023-08-30T05:48:36;100596.30;;;28.98;43.48
42511;BME280;28141;51.120;17.114;2023-08-30T05:52:16;100596.22;;;28.88;43.61
42511;BME280;28141;51.120;17.114;2023-08-30T05:55:31;100600.69;;;28.89;43.82
42511;BME280;28141;51.120;17.114;2023-08-30T05:58:45;100600.14;;;28.92;43.48
42511;BME280;28141;51.120;17.114;2023-08-30T06:01:59;100599.63;;;29.00;43.14
42511;BME280;28141;51.120;17.114;2023-08-30T06:05:39;100602.44;;;29.05;43.49
42511;BME280;28141;51.120;17.114;2023-08-30T06:08:53;100600.54;;;29.16;43.30
42511;BME280;28141;51.120;17.114;2023-08-30T06:12:08;100596.41;;;29.34;42.72
42511;BME280;28141;51.120;17.114;2023-08-30T06:15:21;100607.89;;;29.43;42.17
42511;BME280;28141;51.120;17.114;2023-08-30T06:19:02;100610.71;;;29.48;42.48
42511;BME280;28141;51.120;17.114;2023-08-30T06:22:16;100610.45;;;29.54;41.81
42511;BME280;28141;51.120;17.114;2023-08-30T06:25:30;100614.34;;;29.53;42.20
42511;BME280;28141;51.120;17.114;2023-08-30T06:28:44;100610.98;;;29.41;42.21
42511;BME280;28141;51.120;17.114;2023-08-30T06:32:25;100620.67;;;29.33;42.46
42511;BME280;28141;51.120;17.114;2023-08-30T06:35:39;100627.36;;;29.32;42.54
42511;BME280;28141;51.120;17.114;2023-08-30T06:38:54;100619.90;;;29.38;43.14
42511;BME280;28141;51.120;17.114;2023-08-30T06:42:08;100627.66;;;29.31;42.89
42511;BME280;28141;51.120;17.114;2023-08-30T06:45:48;100635.45;;;29.29;42.92
42511;BME280;28141;51.120;17.114;2023-08-30T06:49:02;100637.41;;;29.33;42.26
42511;BME280;28141;51.120;17.114;2023-08-30T06:52:16;100640.78;;;29.35;42.84
42511;BME280;28141;51.120;17.114;2023-08-30T06:55:30;100638.52;;;29.32;43.27
42511;BME280;28141;51.120;17.114;2023-08-30T06:58:46;100638.83;;;29.36;42.51
42511;BME280;28141;51.120;17.114;2023-08-30T07:02:26;100643.66;;;29.51;42.70
42511;BME280;28141;51.120;17.114;2023-08-30T07:05:41;100640.00;;;29.45;42.77
42511;BME280;28141;51.120;17.114;2023-08-30T07:08:57;100642.79;;;29.40;42.41
42511;BME280;28141;51.120;17.114;2023-08-30T07:12:10;100660.64;;;29.44;42.46
42511;BME280;28141;51.120;17.114;2023-08-30T07:15:50;100650.59;;;29.38;42.70
42511;BME280;28141;51.120;17.114;2023-08-30T07:19:04;100663.70;;;29.43;42.66
42511;BME280;28141;51.120;17.114;2023-08-30T07:22:18;100654.28;;;29.64;42.41
42511;BME280;28141;51.120;17.114;2023-08-30T07:25:33;100656.24;;;29.58;42.97
42511;BME280;28141;51.120;17.114;2023-08-30T07:29:15;100659.00;;;29.53;42.33
42511;BME280;28141;51.120;17.114;2023-08-30T07:32:29;100662.66;;;29.64;42.25
42511;BME280;28141;51.120;17.114;2023-08-30T07:35:43;100656.80;;;29.65;41.78
42511;BME280;28141;51.120;17.114;2023-08-30T07:38:57;100661.87;;;29.78;42.67
42511;BME280;28141;51.120;17.114;2023-08-30T07:42:37;100672.47;;;29.76;42.06
42511;BME280;28141;51.120;17.114;2023-08-30T07:45:51;100671.09;;;29.74;42.58
42511;BME280;28141;51.120;17.114;2023-08-30T07:49:05;100666.38;;;29.95;41.90
42511;BME280;28141;51.120;17.114;2023-08-30T07:52:19;100659.71;;;30.01;41.83
42511;BME280;28141;51.120;17.114;2023-08-30T07:55:59;100673.35;;;29.92;41.63
42511;BME280;28141;51.120;17.114;2023-08-30T07:59:13;100671.99;;;30.00;42.00
42511;BME280;28141;51.120;17.114;2023-08-30T08:02:27;100661.96;;;30.04;40.97
42511;BME280;28141;51.120;17.114;2023-08-30T08:05:41;100671.46;;;30.13;41.87
42511;BME280;28141;51.120;17.114;2023-08-30T08:09:21;100665.86;;;30.18;41.25
42511;BME280;28141;51.120;17.114;2023-08-30T08:12:35;100660.27;;;30.18;40.71
42511;BME280;28141;51.120;17.114;2023-08-30T08:15:49;100672.58;;;30.12;40.81
42511;BME280;28141;51.120;17.114;2023-08-30T08:19:03;100663.09;;;30.23;40.99
42511;BME280;28141;51.120;17.114;2023-08-30T08:22:42;100675.65;;;30.31;40.81
42511;BME280;28141;51.120;17.114;2023-08-30T08:26:00;100670.64;;;30.38;40.69
42511;BME280;28141;51.120;17.114;2023-08-30T08:29:16;100669.22;;;30.40;40.57
42511;BME280;28141;51.120;17.114;2023-08-30T08:32:30;100666.73;;;30.39;40.73
42511;BME280;28141;51.120;17.114;2023-08-30T08:36:11;100678.16;;;30.32;40.56
42511;BME280;28141;51.120;17.114;2023-08-30T08:39:25;100677.91;;;30.39;40.80
42511;BME280;28141;51.120;17.114;2023-08-30T08:42:39;100685.15;;;30.40;40.93
42511;BME280;28141;51.120;17.114;2023-08-30T08:46:01;100692.72;;;30.49;39.61
42511;BME280;28141;51.120;17.114;2023-08-30T08:49:42;100697.75;;;30.47;40.00
42511;BME280;28141;51.120;17.114;2023-08-30T08:52:57;100701.65;;;30.41;39.71
42511;BME280;28141;51.120;17.114;2023-08-30T08:56:12;100697.48;;;30.39;39.74
42511;BME280;28141;51.120;17.114;2023-08-30T08:59:27;100708.93;;;30.37;40.32
42511;BME280;28141;51.120;17.114;2023-08-30T09:03:08;100704.15;;;30.23;40.14
42511;BME280;28141;51.120;17.114;2023-08-30T09:06:22;100703.88;;;30.24;39.89
42511;BME280;28141;51.120;17.114;2023-08-30T09:09:36;100710.03;;;30.16;40.70
42511;BME280;28141;51.120;17.114;2023-08-30T09:12:50;100706.66;;;30.19;40.88
42511;BME280;28141;51.120;17.114;2023-08-30T09:16:30;100706.96;;;30.18;40.58
42511;BME280;28141;51.120;17.114;2023-08-30T09:19:44;100705.55;;;30.15;40.51
42511;BME280;28141;51.120;17.114;2023-08-30T09:22:58;100711.72;;;30.27;40.85
42511;BME280;28141;51.120;17.114;2023-08-30T09:26:12;100699.98;;;30.35;40.97
42511;BME280;28141;51.120;17.114;2023-08-30T09:29:52;100713.94;;;30.50;40.24
42511;BME280;28141;51.120;17.114;2023-08-30T09:33:06;100707.55;;;30.55;39.75
42511;BME280;28141;51.120;17.114;2023-08-30T09:36:20;100709.50;;;30.55;39.89
42511;BME280;28141;51.120;17.114;2023-08-30T09:39:34;100711.98;;;30.51;39.60
42511;BME280;28141;51.120;17.114;2023-08-30T09:43:19;100708.37;;;30.45;39.99
42511;BME280;28141;51.120;17.114;2023-08-30T09:46:48;100700.27;;;30.49;40.49
42511;BME280;28141;51.120;17.114;2023-08-30T09:50:03;100699.41;;;30.43;39.76
42511;BME280;28141;51.120;17.114;2023-08-30T09:53:45;100701.11;;;30.49;40.28
42511;BME280;28141;51.120;17.114;2023-08-30T09:57:02;100696.94;;;30.57;40.24
42511;BME280;28141;51.120;17.114;2023-08-30T10:00:17;100706.38;;;30.51;39.60
42511;BME280;28141;51.120;17.114;2023-08-30T10:03:31;100709.21;;;30.61;39.56
42511;BME280;28141;51.120;17.114;2023-08-30T10:07:12;100700.55;;;30.53;40.09
42511;BME280;28141;51.120;17.114;2023-08-30T10:10:27;100710.61;;;30.48;39.89
42511;BME280;28141;51.120;17.114;2023-08-30T10:13:43;100710.88;;;30.47;40.12
42511;BME280;28141;51.120;17.114;2023-08-30T10:17:02;100708.66;;;30.54;40.41
42511;BME280;28141;51.120;17.114;2023-08-30T10:20:43;100707.27;;;30.57;40.29
42511;BME280;28141;51.120;17.114;2023-08-30T10:23:59;100705.31;;;30.67;40.33
42511;BME280;28141;51.120;17.114;2023-08-30T10:27:17;100699.18;;;30.60;40.61
42511;BME280;28141;51.120;17.114;2023-08-30T10:30:32;100703.91;;;30.65;39.87
42511;BME280;28141;51.120;17.114;2023-08-30T10:34:16;100706.13;;;30.73;39.97
42511;BME280;28141;51.120;17.114;2023-08-30T10:37:33;100698.30;;;30.75;39.88
42511;BME280;28141;51.120;17.114;2023-08-30T10:40:48;100699.43;;;30.79;39.75
42511;BME280;28141;51.120;17.114;2023-08-30T10:44:02;100694.37;;;30.86;39.92
42511;BME280;28141;51.120;17.114;2023-08-30T10:47:42;100698.54;;;30.94;39.64
42511;BME280;28141;51.120;17.114;2023-08-30T10:50:57;100702.19;;;30.94;39.63
42511;BME280;28141;51.120;17.114;2023-08-30T10:54:12;100718.13;;;30.94;39.19
42511;BME280;28141;51.120;17.114;2023-08-30T10:57:26;100713.96;;;30.91;39.33
42511;BME280;28141;51.120;17.114;2023-08-30T11:01:09;100709.76;;;30.89;39.29
42511;BME280;28141;51.120;17.114;2023-08-30T11:04:26;100714.21;;;30.95;38.95
42511;BME280;28141;51.120;17.114;2023-08-30T11:07:40;100708.09;;;30.93;38.94
42511;BME280;28141;51.120;17.114;2023-08-30T11:11:03;100718.71;;;30.91;39.25
42511;BME280;28141;51.120;17.114;2023-08-30T11:14:46;100714.81;;;30.81;39.25
42511;BME280;28141;51.120;17.114;2023-08-30T11:18:03;100708.37;;;30.86;39.13
42511;BME280;28141;51.120;17.114;2023-08-30T11:21:18;100720.67;;;30.90;39.31
42511;BME280;28141;51.120;17.114;2023-08-30T11:24:33;100713.67;;;30.88;38.61
42511;BME280;28141;51.120;17.114;2023-08-30T11:28:21;100715.07;;;30.85;39.12
42511;BME280;28141;51.120;17.114;2023-08-30T11:31:36;100709.47;;;30.85;39.37
42511;BME280;28141;51.120;17.114;2023-08-30T11:34:56;100710.60;;;30.89;39.26
42511;BME280;28141;51.120;17.114;2023-08-30T11:38:40;100705.29;;;30.93;39.40
42511;BME280;28141;51.120;17.114;2023-08-30T11:41:54;100705.27;;;31.03;39.31
42511;BME280;28141;51.120;17.114;2023-08-30T11:45:09;100698.84;;;31.12;39.26
42511;BME280;28141;51.120;17.114;2023-08-30T11:48:24;100707.16;;;31.28;39.24
42511;BME280;28141;51.120;17.114;2023-08-30T11:52:05;100694.54;;;31.40;38.91
42511;BME280;28141;51.120;17.114;2023-08-30T11:55:23;100695.33;;;31.51;38.74
42511;BME280;28141;51.120;17.114;2023-08-30T11:58:37;100700.92;;;31.51;38.62
42511;BME280;28141;51.120;17.114;2023-08-30T12:01:54;100698.12;;;31.56;38.40
42511;BME280;28141;51.120;17.114;2023-08-30T12:05:35;100700.90;;;31.66;38.46
42511;BME280;28141;51.120;17.114;2023-08-30T12:08:57;100706.46;;;31.71;38.54
42511;BME280;28141;51.120;17.114;2023-08-30T12:12:12;100697.76;;;31.78;38.60
42511;BME280;28141;51.120;17.114;2023-08-30T12:15:26;100697.48;;;31.79;38.29
42511;BME280;28141;51.120;17.114;2023-08-30T12:19:12;100704.49;;;31.72;37.85
42511;BME280;28141;51.120;17.114;2023-08-30T12:22:37;100695.19;;;31.81;38.02
42511;BME280;28141;51.120;17.114;2023-08-30T12:29:44;100703.94;;;31.70;38.24
42511;BME280;28141;51.120;17.114;2023-08-30T12:33:01;100700.85;;;31.71;37.59
42511;BME280;28141;51.120;17.114;2023-08-30T12:36:18;100701.99;;;31.60;37.94
42511;BME280;28141;51.120;17.114;2023-08-30T12:39:32;100687.47;;;31.63;38.17
42511;BME280;28141;51.120;17.114;2023-08-30T12:43:13;100702.53;;;31.72;38.07
42511;BME280;28141;51.120;17.114;2023-08-30T12:46:27;100698.04;;;31.76;38.03
42511;BME280;28141;51.120;17.114;2023-08-30T12:49:41;100695.80;;;31.73;37.96
42511;BME280;28141;51.120;17.114;2023-08-30T12:52:55;100692.45;;;31.76;37.80
42511;BME280;28141;51.120;17.114;2023-08-30T12:56:35;100698.00;;;31.81;37.87
42511;BME280;28141;51.120;17.114;2023-08-30T12:59:49;100697.76;;;31.78;37.80
42511;BME280;28141;51.120;17.114;2023-08-30T13:03:03;100688.52;;;31.77;38.51
42511;BME280;28141;51.120;17.114;2023-08-30T13:06:18;100691.91;;;31.69;37.81
42511;BME280;28141;51.120;17.114;2023-08-30T13:09:58;100700.37;;;31.54;38.07
42511;BME280;28141;51.120;17.114;2023-08-30T13:13:11;100694.54;;;31.40;37.96
42511;BME280;28141;51.120;17.114;2023-08-30T13:16:26;100697.37;;;31.30;38.58
42511;BME280;28141;51.120;17.114;2023-08-30T13:19:40;100694.30;;;31.27;38.81
42511;BME280;28141;51.120;17.114;2023-08-30T13:22:54;100695.98;;;31.28;38.76
42511;BME280;28141;51.120;17.114;2023-08-30T13:26:08;100700.73;;;31.32;38.45
42511;BME280;28141;51.120;17.114;2023-08-30T13:29:50;100683.61;;;31.44;38.37
42511;BME280;28141;51.120;17.114;2023-08-30T13:33:04;100689.77;;;31.46;38.14
42511;BME280;28141;51.120;17.114;2023-08-30T13:36:18;100693.93;;;31.48;38.27
42511;BME280;28141;51.120;17.114;2023-08-30T13:39:32;100696.80;;;31.33;38.13
42511;BME280;28141;51.120;17.114;2023-08-30T13:43:12;100703.80;;;31.36;38.33
42511;BME280;28141;51.120;17.114;2023-08-30T13:46:26;100695.64;;;31.44;38.24
42511;BME280;28141;51.120;17.114;2023-08-30T13:49:40;100705.77;;;31.30;38.40
42511;BME280;28141;51.120;17.114;2023-08-30T13:52:54;100700.16;;;31.30;38.31
42511;BME280;28141;51.120;17.114;2023-08-30T13:56:35;100701.05;;;31.26;38.33
42511;BME280;28141;51.120;17.114;2023-08-30T14:00:21;100690.41;;;31.17;38.40
42511;BME280;28141;51.120;17.114;2023-08-30T14:03:34;100695.16;;;31.17;38.85
42511;BME280;28141;51.120;17.114;2023-08-30T14:06:48;100693.77;;;31.25;38.38
42511;BME280;28141;51.120;17.114;2023-08-30T14:10:03;100700.45;;;31.29;37.87
42511;BME280;28141;51.120;17.114;2023-08-30T14:13:45;100707.80;;;31.14;38.24
42511;BME280;28141;51.120;17.114;2023-08-30T14:16:59;100702.16;;;31.04;38.48
42511;BME280;28141;51.120;17.114;2023-08-30T14:20:14;100699.95;;;30.96;38.33
42511;BME280;28141;51.120;17.114;2023-08-30T14:23:29;100702.19;;;30.99;38.44
42511;BME280;28141;51.120;17.114;2023-08-30T14:27:09;100703.31;;;31.03;38.35
42511;BME280;28141;51.120;17.114;2023-08-30T14:30:23;100697.98;;;31.02;38.13
42511;BME280;28141;51.120;17.114;2023-08-30T14:33:41;100697.16;;;31.11;38.32
42511;BME280;28141;51.120;17.114;2023-08-30T14:36:55;100698.24;;;31.15;37.84
42511;BME280;28141;51.120;17.114;2023-08-30T14:40:35;100701.05;;;31.26;37.85
42511;BME280;28141;51.120;17.114;2023-08-30T14:43:52;100708.29;;;31.32;37.51
42511;BME280;28141;51.120;17.114;2023-08-30T14:47:06;100711.36;;;31.35;37.62
42511;BME280;28141;51.120;17.114;2023-08-30T14:50:20;100714.41;;;31.39;37.78
42511;BME280;28141;51.120;17.114;2023-08-30T14:54:00;100725.05;;;31.37;37.64
42511;BME280;28141;51.120;17.114;2023-08-30T14:57:14;100711.09;;;31.32;37.25
42511;BME280;28141;51.120;17.114;2023-08-30T15:00:28;100724.52;;;31.35;37.36
42511;BME280;28141;51.120;17.114;2023-08-30T15:03:41;100723.95;;;31.28;37.53
42511;BME280;28141;51.120;17.114;2023-08-30T15:07:25;100732.63;;;31.26;37.73
42511;BME280;28141;51.120;17.114;2023-08-30T15:10:38;100725.63;;;31.34;37.52
42511;BME280;28141;51.120;17.114;2023-08-30T15:13:53;100727.88;;;31.27;37.46
42511;BME280;28141;51.120;17.114;2023-08-30T15:17:07;100718.11;;;31.19;37.99
42511;BME280;28141;51.120;17.114;2023-08-30T15:20:46;100720.10;;;31.08;37.93
42511;BME280;28141;51.120;17.114;2023-08-30T15:24:05;100719.54;;;31.01;38.39
42511;BME280;28141;51.120;17.114;2023-08-30T15:27:19;100717.02;;;31.00;38.18
42511;BME280;28141;51.120;17.114;2023-08-30T15:30:33;100722.05;;;30.98;38.38
42511;BME280;28141;51.120;17.114;2023-08-30T15:34:17;100720.64;;;30.95;38.31
42511;BME280;28141;51.120;17.114;2023-08-30T15:37:31;100713.96;;;30.91;38.13
42511;BME280;28141;51.120;17.114;2023-08-30T15:40:44;100717.59;;;30.87;38.74
42511;BME280;28141;51.120;17.114;2023-08-30T15:43:58;100712.27;;;30.85;38.63
42511;BME280;28141;51.120;17.114;2023-08-30T15:47:38;100722.09;;;30.82;38.51
42511;BME280;28141;51.120;17.114;2023-08-30T15:50:52;100710.90;;;30.82;38.42
42511;BME280;28141;51.120;17.114;2023-08-30T15:54:06;100719.57;;;30.81;38.36
42511;BME280;28141;51.120;17.114;2023-08-30T15:57:20;100718.98;;;30.84;38.44
42511;BME280;28141;51.120;17.114;2023-08-30T16:01:04;100733.54;;;30.76;38.53
42511;BME280;28141;51.120;17.114;2023-08-30T16:04:18;100727.95;;;30.76;38.84
42511;BME280;28141;51.120;17.114;2023-08-30T16:07:32;100729.62;;;30.72;38.46
42511;BME280;28141;51.120;17.114;2023-08-30T16:10:54;100731.04;;;30.69;38.65
42511;BME280;28141;51.120;17.114;2023-08-30T16:14:35;100737.76;;;30.68;38.81
42511;BME280;28141;51.120;17.114;2023-08-30T16:17:49;100737.18;;;30.61;39.19
42511;BME280;28141;51.120;17.114;2023-08-30T16:21:03;100735.23;;;30.57;39.29
42511;BME280;28141;51.120;17.114;2023-08-30T16:24:17;100746.96;;;30.64;38.82
42511;BME280;28141;51.120;17.114;2023-08-30T16:27:58;100750.60;;;30.54;38.95
42511;BME280;28141;51.120;17.114;2023-08-30T16:31:12;100749.75;;;30.48;39.40
42511;BME280;28141;51.120;17.114;2023-08-30T16:34:26;100746.64;;;30.40;38.85
42511;BME280;28141;51.120;17.114;2023-08-30T16:37:39;100752.80;;;30.37;39.20
42511;BME280;28141;51.120;17.114;2023-08-30T16:41:19;100749.71;;;30.33;39.36
42511;BME280;28141;51.120;17.114;2023-08-30T16:44:33;100749.15;;;30.31;39.69
42511;BME280;28141;51.120;17.114;2023-08-30T16:47:47;100741.34;;;30.33;39.71
42511;BME280;28141;51.120;17.114;2023-08-30T16:51:01;100744.14;;;30.28;39.31
42511;BME280;28141;51.120;17.114;2023-08-30T16:54:45;100748.86;;;30.23;39.60
42511;BME280;28141;51.120;17.114;2023-08-30T16:58:04;100744.10;;;30.23;39.45
42511;BME280;28141;51.120;17.114;2023-08-30T17:01:18;100744.09;;;30.18;39.68
42511;BME280;28141;51.120;17.114;2023-08-30T17:04:32;100744.66;;;30.15;40.01
42511;BME280;28141;51.120;17.114;2023-08-30T17:08:12;100742.98;;;30.14;39.86
42511;BME280;28141;51.120;17.114;2023-08-30T17:11:25;100744.07;;;30.08;39.39
42511;BME280;28141;51.120;17.114;2023-08-30T17:14:39;100736.27;;;30.05;39.48
42511;BME280;28141;51.120;17.114;2023-08-30T17:17:53;100735.42;;;30.04;40.55
42511;BME280;28141;51.120;17.114;2023-08-30T17:21:33;100739.03;;;30.00;40.16
42511;BME280;28141;51.120;17.114;2023-08-30T17:24:47;100729.54;;;30.01;40.23
42511;BME280;28141;51.120;17.114;2023-08-30T17:28:01;100742.09;;;29.98;40.80